TimeEST,TemperatureF,Dew PointF,Humidity,Sea Level PressureIn,VisibilityMPH,Wind Direction,Wind SpeedMPH,Gust SpeedMPH,PrecipitationIn,Events,Conditions,WindDirDegrees,DateUTC
12:15 AM,30.2,26.6,86,30.33,7.0,Calm,Calm,-,N/A,,Overcast,0,2013-01-28 05:15:00
12:35 AM,30.2,27.1,88,30.32,7.0,Calm,Calm,-,N/A,,Overcast,0,2013-01-28 05:35:00
12:55 AM,30.4,27.3,88,30.33,7.0,Calm,Calm,-,N/A,,Overcast,0,2013-01-28 05:55:00
1:15 AM,30.7,27.9,89,30.31,7.0,Calm,Calm,-,N/A,,Overcast,0,2013-01-28 06:15:00
1:35 AM,30.9,28.2,90,30.32,7.0,Calm,Calm,-,N/A,,Overcast,0,2013-01-28 06:35:00
1:55 AM,31.1,28.0,88,30.32,7.0,Calm,Calm,-,N/A,,Overcast,0,2013-01-28 06:55:00
2:15 AM,31.1,28.2,89,30.32,7.0,Calm,Calm,-,N/A,,Overcast,0,2013-01-28 07:15:00
2:35 AM,30.9,28.4,90,30.31,4.0,Calm,Calm,-,N/A,,Overcast,0,2013-01-28 07:35:00
2:55 AM,30.9,28.6,91,30.31,4.0,Calm,Calm,-,N/A,,Overcast,0,2013-01-28 07:55:00
3:15 AM,30.7,28.4,91,30.31,5.0,Calm,Calm,-,N/A,,Overcast,0,2013-01-28 08:15:00
3:35 AM,30.0,28.0,92,30.31,5.0,Calm,Calm,-,N/A,,Overcast,0,2013-01-28 08:35:00
3:55 AM,29.7,27.7,92,30.31,5.0,Calm,Calm,-,N/A,,Overcast,0,2013-01-28 08:55:00
4:15 AM,29.8,28.0,93,30.30,4.0,Calm,Calm,-,N/A,,Overcast,0,2013-01-28 09:15:00
4:35 AM,30.0,28.4,94,30.30,3.0,SSE,3.5,-,N/A,,Overcast,160,2013-01-28 09:35:00
4:55 AM,29.8,28.2,94,30.31,3.0,Calm,Calm,-,N/A,,Overcast,0,2013-01-28 09:55:00
5:15 AM,29.8,28.4,94,30.31,3.0,Calm,Calm,-,N/A,,Overcast,0,2013-01-28 10:15:00
5:35 AM,29.8,28.4,94,30.30,3.0,Calm,Calm,-,N/A,,Overcast,0,2013-01-28 10:35:00
5:55 AM,29.7,28.2,94,30.31,3.0,Calm,Calm,-,N/A,,Overcast,0,2013-01-28 10:55:00
6:15 AM,29.8,28.4,94,30.31,3.0,Calm,Calm,-,N/A,,Overcast,0,2013-01-28 11:15:00
6:35 AM,29.8,28.4,94,30.31,3.0,Calm,Calm,-,N/A,,Overcast,0,2013-01-28 11:35:00
7:15 AM,30.0,28.6,94,30.33,4.0,Calm,Calm,-,N/A,,Scattered Clouds,0,2013-01-28 12:15:00
7:35 AM,30.2,28.8,94,30.33,4.0,Calm,Calm,-,N/A,,Clear,0,2013-01-28 12:35:00
7:55 AM,30.6,28.9,94,30.33,3.0,Calm,Calm,-,N/A,,Clear,0,2013-01-28 12:55:00
8:15 AM,31.1,29.3,93,30.33,4.0,Calm,Calm,-,N/A,,Clear,0,2013-01-28 13:15:00
8:35 AM,31.5,29.8,94,30.32,3.0,Calm,Calm,-,N/A,,Clear,0,2013-01-28 13:35:00
8:55 AM,31.5,29.8,94,30.32,3.0,South,3.5,-,N/A,,Clear,180,2013-01-28 13:55:00
9:35 AM,34.2,31.8,91,30.32,7.0,South,3.5,-,N/A,,Clear,180,2013-01-28 14:35:00
9:55 AM,36.3,32.2,85,30.32,7.0,Calm,Calm,-,N/A,,Scattered Clouds,0,2013-01-28 14:55:00
10:15 AM,38.7,33.4,81,30.32,7.0,Calm,Calm,-,N/A,,Mostly Cloudy,0,2013-01-28 15:15:00
10:35 AM,41.7,33.8,73,30.31,10.0,SE,3.5,-,N/A,,Mostly Cloudy,130,2013-01-28 15:35:00
10:55 AM,44.2,34.0,67,30.31,10.0,ESE,3.5,-,N/A,,Scattered Clouds,120,2013-01-28 15:55:00
11:15 AM,47.8,35.4,62,30.30,10.0,SE,4.6,-,N/A,,Scattered Clouds,140,2013-01-28 16:15:00
11:35 AM,49.6,36.0,59,30.30,10.0,Calm,Calm,-,N/A,,Clear,0,2013-01-28 16:35:00
11:55 AM,52.5,36.9,55,30.29,10.0,ESE,4.6,-,N/A,,Scattered Clouds,120,2013-01-28 16:55:00
12:15 PM,54.9,37.8,53,30.27,10.0,SE,3.5,-,N/A,,Clear,130,2013-01-28 17:15:00
12:35 PM,58.8,36.5,43,30.26,10.0,SSE,3.5,-,N/A,,Clear,160,2013-01-28 17:35:00
1:15 PM,53.8,36.7,52,30.23,10.0,SE,3.5,-,N/A,,Clear,140,2013-01-28 18:15:00
1:35 PM,53.6,36.5,52,30.22,10.0,SSE,5.8,-,N/A,,Clear,150,2013-01-28 18:35:00
1:55 PM,52.9,36.0,53,30.21,10.0,SE,5.8,-,N/A,,Clear,140,2013-01-28 18:55:00
2:15 PM,52.7,35.6,52,30.21,10.0,SSE,4.6,-,N/A,,Clear,160,2013-01-28 19:15:00
2:35 PM,52.7,35.6,52,30.20,10.0,SE,3.5,-,N/A,,Clear,140,2013-01-28 19:35:00
2:55 PM,53.2,35.8,52,30.20,10.0,SSE,4.6,-,N/A,,Clear,160,2013-01-28 19:55:00
3:15 PM,53.4,36.0,52,30.20,10.0,SE,4.6,-,N/A,,Clear,140,2013-01-28 20:15:00
3:35 PM,53.8,36.0,51,30.20,10.0,SSE,3.5,-,N/A,,Clear,150,2013-01-28 20:35:00
3:55 PM,54.0,36.1,51,30.20,10.0,SE,3.5,-,N/A,,Clear,130,2013-01-28 20:55:00
4:15 PM,53.6,36.1,52,30.20,10.0,SE,3.5,-,N/A,,Clear,140,2013-01-28 21:15:00
4:35 PM,52.7,36.5,54,30.20,10.0,SE,4.6,-,N/A,,Clear,140,2013-01-28 21:35:00
4:55 PM,52.0,36.5,56,30.20,10.0,SE,3.5,-,N/A,,Clear,130,2013-01-28 21:55:00
5:15 PM,51.6,37.0,58,30.21,10.0,SE,3.5,-,N/A,,Clear,140,2013-01-28 22:15:00
5:35 PM,49.3,37.4,64,30.22,10.0,SSE,3.5,-,N/A,,Scattered Clouds,160,2013-01-28 22:35:00
5:55 PM,48.2,37.4,66,30.22,10.0,SSE,3.5,-,N/A,,Scattered Clouds,160,2013-01-28 22:55:00
6:15 PM,46.0,37.4,72,30.22,10.0,SSE,3.5,-,N/A,,Scattered Clouds,150,2013-01-28 23:15:00
6:35 PM,45.7,37.6,73,30.23,10.0,Calm,Calm,-,N/A,,Mostly Cloudy,0,2013-01-28 23:35:00
6:55 PM,45.3,37.4,74,30.23,10.0,SSE,4.6,-,N/A,,Mostly Cloudy,160,2013-01-28 23:55:00
7:15 PM,44.8,37.4,75,30.23,10.0,Calm,Calm,-,N/A,,Mostly Cloudy,0,2013-01-29 00:15:00
7:35 PM,44.6,37.2,75,30.23,10.0,Calm,Calm,-,N/A,,Mostly Cloudy,0,2013-01-29 00:35:00
8:15 PM,46.4,36.5,68,30.23,10.0,Calm,Calm,-,N/A,,Scattered Clouds,0,2013-01-29 01:15:00
8:35 PM,45.7,36.7,71,30.24,10.0,Calm,Calm,-,N/A,,Mostly Cloudy,0,2013-01-29 01:35:00
8:55 PM,45.7,36.7,71,30.23,10.0,Calm,Calm,-,N/A,,Mostly Cloudy,0,2013-01-29 01:55:00
9:15 PM,46.9,36.9,68,30.23,10.0,Calm,Calm,-,N/A,,Mostly Cloudy,0,2013-01-29 02:15:00
9:55 PM,43.7,36.9,77,30.22,10.0,Calm,Calm,-,N/A,,Mostly Cloudy,0,2013-01-29 02:55:00
10:15 PM,45.1,37.0,73,30.21,10.0,WSW,3.5,-,N/A,,Scattered Clouds,240,2013-01-29 03:15:00
10:35 PM,52.5,38.7,59,30.21,10.0,West,13.8,21.9,N/A,,Scattered Clouds,280,2013-01-29 03:35:00
10:55 PM,53.4,38.7,57,30.20,10.0,West,18.4,23.0,N/A,,Clear,280,2013-01-29 03:55:00
11:15 PM,53.6,39.2,58,30.20,10.0,West,16.1,23.0,N/A,,Scattered Clouds,280,2013-01-29 04:15:00
11:35 PM,54.3,38.7,55,30.20,10.0,West,15.0,26.5,N/A,,Mostly Cloudy,270,2013-01-29 04:35:00
11:55 PM,53.8,38.8,57,30.21,10.0,West,18.4,26.5,N/A,,Overcast,280,2013-01-29 04:55:00